sensor_id;sensor_type;location;lat;lon;timestamp;temperature;humidity
3736;DHT22;1883;48.202;16.310;2023-02-26T02:33:16;1.80;64.00
3736;DHT22;1883;48.202;16.310;2023-02-26T02:35:49;1.80;64.10
3736;DHT22;1883;48.202;16.310;2023-02-26T02:38:20;1.80;64.10
3736;DHT22;1883;48.202;16.310;2023-02-26T02:40:53;1.70;64.00
3736;DHT22;1883;48.202;16.310;2023-02-26T02:43:26;1.70;64.10
3736;DHT22;1883;48.202;16.310;2023-02-26T02:45:59;1.70;64.10
3736;DHT22;1883;48.202;16.310;2023-02-26T02:48:32;1.70;64.10
3736;DHT22;1883;48.202;16.310;2023-02-26T02:51:02;1.70;64.00
3736;DHT22;1883;48.202;16.310;2023-02-26T02:53:34;1.70;64.00
3736;DHT22;1883;48.202;16.310;2023-02-26T02:56:04;1.70;64.00
3736;DHT22;1883;48.202;16.310;2023-02-26T02:58:36;1.80;64.00
3736;DHT22;1883;48.202;16.310;2023-02-26T03:37:57;1.70;63.80
3736;DHT22;1883;48.202;16.310;2023-02-26T03:40:27;1.70;63.80
3736;DHT22;1883;48.202;16.310;2023-02-26T03:42:58;1.60;63.80
3736;DHT22;1883;48.202;16.310;2023-02-26T03:45:29;1.50;63.80
3736;DHT22;1883;48.202;16.310;2023-02-26T03:47:58;1.60;63.70
3736;DHT22;1883;48.202;16.310;2023-02-26T03:50:32;1.50;63.70
3736;DHT22;1883;48.202;16.310;2023-02-26T03:53:05;1.60;63.70
3736;DHT22;1883;48.202;16.310;2023-02-26T03:55:35;1.50;63.70
3736;DHT22;1883;48.202;16.310;2023-02-26T03:58:04;1.60;63.70
3736;DHT22;1883;48.202;16.310;2023-02-26T04:00:33;1.70;63.80
3736;DHT22;1883;48.202;16.310;2023-02-26T04:03:06;1.60;63.80
3736;DHT22;1883;48.202;16.310;2023-02-26T04:05:37;1.70;63.90
3736;DHT22;1883;48.202;16.310;2023-02-26T04:08:08;1.60;63.90
3736;DHT22;1883;48.202;16.310;2023-02-26T04:10:39;1.60;63.80
3736;DHT22;1883;48.202;16.310;2023-02-26T04:13:07;1.60;63.80
3736;DHT22;1883;48.202;16.310;2023-02-26T04:15:34;1.60;63.90
3736;DHT22;1883;48.202;16.310;2023-02-26T04:18:01;1.60;63.80
3736;DHT22;1883;48.202;16.310;2023-02-26T04:20:28;1.70;63.80
3736;DHT22;1883;48.202;16.310;2023-02-26T04:22:55;1.60;63.60
3736;DHT22;1883;48.202;16.310;2023-02-26T04:25:23;1.60;63.40
3736;DHT22;1883;48.202;16.310;2023-02-26T04:27:50;1.50;63.30
3736;DHT22;1883;48.202;16.310;2023-02-26T04:30:18;1.50;63.20
3736;DHT22;1883;48.202;16.310;2023-02-26T04:32:45;1.50;63.10
3736;DHT22;1883;48.202;16.310;2023-02-26T04:35:12;1.50;63.10
3736;DHT22;1883;48.202;16.310;2023-02-26T04:37:39;1.50;63.10
3736;DHT22;1883;48.202;16.310;2023-02-26T04:40:07;1.50;63.00
3736;DHT22;1883;48.202;16.310;2023-02-26T04:42:36;1.60;63.00
3736;DHT22;1883;48.202;16.310;2023-02-26T04:45:03;1.50;62.90
3736;DHT22;1883;48.202;16.310;2023-02-26T04:47:30;1.50;63.00
3736;DHT22;1883;48.202;16.310;2023-02-26T04:49:57;1.50;62.90
3736;DHT22;1883;48.202;16.310;2023-02-26T04:52:24;1.50;62.80
3736;DHT22;1883;48.202;16.310;2023-02-26T04:54:51;1.60;62.80
3736;DHT22;1883;48.202;16.310;2023-02-26T04:57:18;1.50;62.70
3736;DHT22;1883;48.202;16.310;2023-02-26T04:59:47;1.50;62.50
